South Mashpee, Massachusetts
Current Conditions -  °F | °C
As of 5:35 AM on Sunday 25 Jan 2015 (Local Time) from KFMH Reporting Station
Overcast Overcast  
Wind Chill: 24°   Ceiling: 8000
Heat Index: 32°   Visibility: 10mi
Dew Point: 28°   Wind: 10mph
Humidity: 87%   Direction: 260°W
Pressure: 29.48"   Gusts: NA
Location:  41.6167°N, 70.4906°W
Report Text: KFMH 251035Z 26009KT 10SM OVC080 M00/M02 A2948 RMK AO2 PRESFR
Loading
Personal Weather Stations






























Interactive Weather Map New forecast layout! Learn more

10-Day Weather Forecast

Advertisements
Track Severe Weather on mobile